Appleton, NY

2:54 PM EDT on August 26, 2016 (GMT -0400)
| | Change Station

Elev -9999 ft 0.00 °N, 0.00 °E | Updated

Clear
Clear
83 °F
Feels Like 83 °F
N
9
Wind Variable Wind from WSW
Gusts 14 mph

Today
High -- | Low -- °F
--% Chance of Precip.
Yesterday
High -- | Low -- °F
Precip. -- in
Pressure 30.07 in
Visibility 10.0 miles
Clouds Few 3000 ft
Few 3400 ft
Few 12000 ft
Scattered Clouds 22000 ft
Heat Index 83 °F
Dew Point 62 °F
Humidity 50%
Rainfall --
Snow Depth Not available.
6:32 AM 7:58 PM
Waning Crescent, 32% visible
METAR KIAG 261753Z 33011KT 10SM FEW030 FEW034 FEW120 SCT220 29/19 A3009 RMK AO2 SLP182 T02890189 10289 20217 51001
Pressure 30.07 in
Visibility 10.0 miles
Clouds Few 3000 ft
Few 3400 ft
Few 12000 ft
Scattered Clouds 22000 ft
Heat Index 83 °F
Dew Point 62 °F
Humidity 50%
Rainfall --
Snow Depth Not available.
6:32 AM 7:58 PM
Waning Crescent, 32% visible
METAR KIAG 261753Z 33011KT 10SM FEW030 FEW034 FEW120 SCT220 29/19 A3009 RMK AO2 SLP182 T02890189 10289 20217 51001

10-Day Weather Forecast

Almanac

Astronomy

Aug. 26, 2016 Rise Set
Actual Time
Civil Twilight
Nautical Twilight
Astronomical Twilight
Moon
Length of Visible Light
Length of Day
Tomorrow will be .
, % of the Moon is Illuminated

Today's Extremes

State Highs State Lows

Community

WunderPhotos

Upload Photos

1,935,175 photos uploaded!

WunderBlog® & News

Nearby

Air Quality

  Air Quality AQ Index Pollutant
Not available.

Snow Depth

Station Depth Elevation

Earthquake Activity

City Distance Mag. Time & Date
Minimum magnitude displayed is 2.5.

Coastal Water Temperatures

Place Temperature

Stations

Nearby Weather Stations

Station Location Temp. Windchill Dew Point Humidity Wind Precip. Elev Updated Type
                   

Watches & Warnings

There are currently no watches in effect.